sensor_id;sensor_type;location;lat;lon;timestamp;P1;durP1;ratioP1;P2;durP2;ratioP2
18780;SDS011;9519;51.890;8.970;2023-04-12T00:03:48;8.23;;;3.00;;
18780;SDS011;9519;51.890;8.970;2023-04-12T00:08:50;11.13;;;3.17;;
18780;SDS011;9519;51.890;8.970;2023-04-12T00:13:54;7.37;;;2.63;;
18780;SDS011;9519;51.890;8.970;2023-04-12T00:18:58;7.73;;;2.33;;
18780;SDS011;9519;51.890;8.970;2023-04-12T00:24:00;6.77;;;2.40;;
18780;SDS011;9519;51.890;8.970;2023-04-12T00:29:03;8.73;;;2.83;;
18780;SDS011;9519;51.890;8.970;2023-04-12T00:34:05;6.90;;;2.90;;
18780;SDS011;9519;51.890;8.970;2023-04-12T00:39:07;5.33;;;2.63;;
18780;SDS011;9519;51.890;8.970;2023-04-12T00:44:11;7.37;;;2.53;;
18780;SDS011;9519;51.890;8.970;2023-04-12T00:49:13;8.93;;;3.27;;
18780;SDS011;9519;51.890;8.970;2023-04-12T00:54:15;10.43;;;3.20;;
18780;SDS011;9519;51.890;8.970;2023-04-12T00:59:20;6.27;;;2.50;;
18780;SDS011;9519;51.890;8.970;2023-04-12T01:04:22;8.43;;;2.80;;
18780;SDS011;9519;51.890;8.970;2023-04-12T01:09:26;6.40;;;3.30;;
18780;SDS011;9519;51.890;8.970;2023-04-12T01:14:40;7.70;;;3.40;;
18780;SDS011;9519;51.890;8.970;2023-04-12T01:19:54;8.57;;;3.10;;
18780;SDS011;9519;51.890;8.970;2023-04-12T01:25:02;7.17;;;3.03;;
18780;SDS011;9519;51.890;8.970;2023-04-12T01:30:27;13.00;;;3.83;;
18780;SDS011;9519;51.890;8.970;2023-04-12T01:35:31;11.07;;;2.90;;
18780;SDS011;9519;51.890;8.970;2023-04-12T01:40:34;9.40;;;3.70;;
18780;SDS011;9519;51.890;8.970;2023-04-12T01:45:40;9.57;;;3.43;;
18780;SDS011;9519;51.890;8.970;2023-04-12T01:50:43;11.70;;;3.57;;
18780;SDS011;9519;51.890;8.970;2023-04-12T01:56:03;10.47;;;2.97;;
18780;SDS011;9519;51.890;8.970;2023-04-12T02:01:11;9.17;;;3.00;;
18780;SDS011;9519;51.890;8.970;2023-04-12T02:06:15;10.50;;;3.40;;
18780;SDS011;9519;51.890;8.970;2023-04-12T02:11:20;8.93;;;2.80;;
18780;SDS011;9519;51.890;8.970;2023-04-12T02:16:23;9.70;;;2.80;;
18780;SDS011;9519;51.890;8.970;2023-04-12T02:21:28;6.97;;;2.77;;
18780;SDS011;9519;51.890;8.970;2023-04-12T02:26:40;7.13;;;3.07;;
18780;SDS011;9519;51.890;8.970;2023-04-12T02:31:43;10.23;;;3.13;;
18780;SDS011;9519;51.890;8.970;2023-04-12T02:36:45;8.53;;;2.93;;
18780;SDS011;9519;51.890;8.970;2023-04-12T02:41:48;14.03;;;3.43;;
18780;SDS011;9519;51.890;8.970;2023-04-12T02:46:51;8.47;;;2.70;;
18780;SDS011;9519;51.890;8.970;2023-04-12T02:51:53;10.47;;;2.80;;
18780;SDS011;9519;51.890;8.970;2023-04-12T02:56:55;8.13;;;2.37;;
18780;SDS011;9519;51.890;8.970;2023-04-12T03:01:58;9.27;;;2.37;;
18780;SDS011;9519;51.890;8.970;2023-04-12T03:07:00;6.77;;;2.47;;
18780;SDS011;9519;51.890;8.970;2023-04-12T03:12:03;6.50;;;2.17;;
18780;SDS011;9519;51.890;8.970;2023-04-12T03:17:07;11.63;;;2.73;;
18780;SDS011;9519;51.890;8.970;2023-04-12T03:22:09;8.37;;;2.20;;
18780;SDS011;9519;51.890;8.970;2023-04-12T03:27:12;8.90;;;3.07;;
18780;SDS011;9519;51.890;8.970;2023-04-12T03:32:15;6.77;;;2.47;;
18780;SDS011;9519;51.890;8.970;2023-04-12T03:37:17;6.97;;;2.40;;
18780;SDS011;9519;51.890;8.970;2023-04-12T03:42:20;9.63;;;2.87;;
18780;SDS011;9519;51.890;8.970;2023-04-12T03:47:23;9.50;;;2.60;;
18780;SDS011;9519;51.890;8.970;2023-04-12T03:52:25;10.60;;;2.40;;
18780;SDS011;9519;51.890;8.970;2023-04-12T03:57:27;10.73;;;2.57;;
18780;SDS011;9519;51.890;8.970;2023-04-12T04:02:31;10.23;;;2.63;;
18780;SDS011;9519;51.890;8.970;2023-04-12T04:07:32;10.70;;;2.17;;
18780;SDS011;9519;51.890;8.970;2023-04-12T04:12:35;9.60;;;2.60;;
18780;SDS011;9519;51.890;8.970;2023-04-12T04:17:38;8.73;;;3.00;;
18780;SDS011;9519;51.890;8.970;2023-04-12T04:22:41;7.67;;;2.50;;
18780;SDS011;9519;51.890;8.970;2023-04-12T04:27:47;7.70;;;2.50;;
18780;SDS011;9519;51.890;8.970;2023-04-12T04:32:51;9.40;;;2.97;;
18780;SDS011;9519;51.890;8.970;2023-04-12T04:37:53;7.13;;;2.47;;
18780;SDS011;9519;51.890;8.970;2023-04-12T04:42:55;8.43;;;2.43;;
18780;SDS011;9519;51.890;8.970;2023-04-12T04:47:59;14.37;;;2.30;;
18780;SDS011;9519;51.890;8.970;2023-04-12T04:53:02;13.73;;;3.30;;
18780;SDS011;9519;51.890;8.970;2023-04-12T04:58:04;8.43;;;2.67;;
18780;SDS011;9519;51.890;8.970;2023-04-12T05:03:08;8.53;;;2.37;;
18780;SDS011;9519;51.890;8.970;2023-04-12T05:08:10;6.90;;;2.50;;
18780;SDS011;9519;51.890;8.970;2023-04-12T05:13:12;10.83;;;2.83;;
18780;SDS011;9519;51.890;8.970;2023-04-12T05:18:15;12.07;;;2.73;;
18780;SDS011;9519;51.890;8.970;2023-04-12T05:23:17;8.17;;;2.23;;
18780;SDS011;9519;51.890;8.970;2023-04-12T05:28:20;8.27;;;2.43;;
18780;SDS011;9519;51.890;8.970;2023-04-12T05:33:26;10.70;;;3.17;;
18780;SDS011;9519;51.890;8.970;2023-04-12T05:38:28;8.10;;;2.40;;
18780;SDS011;9519;51.890;8.970;2023-04-12T05:43:30;6.23;;;2.20;;
18780;SDS011;9519;51.890;8.970;2023-04-12T05:48:34;9.07;;;2.73;;
18780;SDS011;9519;51.890;8.970;2023-04-12T05:53:36;9.27;;;2.80;;
18780;SDS011;9519;51.890;8.970;2023-04-12T05:58:38;9.53;;;2.67;;
18780;SDS011;9519;51.890;8.970;2023-04-12T06:03:41;9.90;;;2.50;;
18780;SDS011;9519;51.890;8.970;2023-04-12T06:08:44;5.20;;;2.53;;
18780;SDS011;9519;51.890;8.970;2023-04-12T06:13:46;4.60;;;2.03;;
18780;SDS011;9519;51.890;8.970;2023-04-12T06:18:50;7.10;;;2.17;;
18780;SDS011;9519;51.890;8.970;2023-04-12T06:23:52;6.10;;;2.20;;
18780;SDS011;9519;51.890;8.970;2023-04-12T06:28:54;6.37;;;2.43;;
18780;SDS011;9519;51.890;8.970;2023-04-12T06:33:57;9.13;;;3.17;;
18780;SDS011;9519;51.890;8.970;2023-04-12T06:39:00;7.97;;;2.50;;
18780;SDS011;9519;51.890;8.970;2023-04-12T06:44:02;8.70;;;2.80;;
18780;SDS011;9519;51.890;8.970;2023-04-12T06:49:06;6.20;;;2.73;;
18780;SDS011;9519;51.890;8.970;2023-04-12T06:54:08;7.20;;;2.90;;
18780;SDS011;9519;51.890;8.970;2023-04-12T06:59:10;8.63;;;2.90;;
18780;SDS011;9519;51.890;8.970;2023-04-12T07:04:13;6.57;;;2.80;;
18780;SDS011;9519;51.890;8.970;2023-04-12T07:09:16;7.97;;;2.83;;
18780;SDS011;9519;51.890;8.970;2023-04-12T07:14:18;7.67;;;2.50;;
18780;SDS011;9519;51.890;8.970;2023-04-12T07:19:22;6.93;;;2.37;;
18780;SDS011;9519;51.890;8.970;2023-04-12T07:24:24;9.57;;;2.93;;
18780;SDS011;9519;51.890;8.970;2023-04-12T07:29:26;7.90;;;2.53;;
18780;SDS011;9519;51.890;8.970;2023-04-12T07:34:29;6.23;;;2.50;;
18780;SDS011;9519;51.890;8.970;2023-04-12T07:39:31;7.20;;;2.80;;
18780;SDS011;9519;51.890;8.970;2023-04-12T07:44:35;7.23;;;2.10;;
18780;SDS011;9519;51.890;8.970;2023-04-12T07:49:38;6.87;;;2.60;;
18780;SDS011;9519;51.890;8.970;2023-04-12T07:54:41;6.83;;;2.40;;
18780;SDS011;9519;51.890;8.970;2023-04-12T07:59:43;4.03;;;2.00;;
18780;SDS011;9519;51.890;8.970;2023-04-12T08:04:47;5.20;;;1.90;;
18780;SDS011;9519;51.890;8.970;2023-04-12T08:09:49;5.40;;;2.00;;
18780;SDS011;9519;51.890;8.970;2023-04-12T08:14:51;8.47;;;2.20;;
18780;SDS011;9519;51.890;8.970;2023-04-12T08:19:54;4.67;;;2.00;;
18780;SDS011;9519;51.890;8.970;2023-04-12T08:24:56;5.73;;;1.90;;
18780;SDS011;9519;51.890;8.970;2023-04-12T08:29:58;7.37;;;2.10;;
18780;SDS011;9519;51.890;8.970;2023-04-12T08:35:02;3.33;;;1.90;;
18780;SDS011;9519;51.890;8.970;2023-04-12T08:40:05;5.20;;;2.00;;
18780;SDS011;9519;51.890;8.970;2023-04-12T08:45:09;7.77;;;2.30;;
18780;SDS011;9519;51.890;8.970;2023-04-12T08:50:14;5.20;;;1.90;;
18780;SDS011;9519;51.890;8.970;2023-04-12T08:55:16;5.53;;;1.90;;
18780;SDS011;9519;51.890;8.970;2023-04-12T09:00:18;4.33;;;1.90;;
18780;SDS011;9519;51.890;8.970;2023-04-12T09:05:27;6.67;;;2.20;;
18780;SDS011;9519;51.890;8.970;2023-04-12T09:10:30;5.53;;;2.00;;
18780;SDS011;9519;51.890;8.970;2023-04-12T09:15:35;5.10;;;1.93;;
18780;SDS011;9519;51.890;8.970;2023-04-12T09:20:50;3.60;;;2.03;;
18780;SDS011;9519;51.890;8.970;2023-04-12T09:26:08;4.47;;;1.83;;
18780;SDS011;9519;51.890;8.970;2023-04-12T09:31:27;4.27;;;1.80;;
18780;SDS011;9519;51.890;8.970;2023-04-12T09:36:37;4.83;;;1.80;;
18780;SDS011;9519;51.890;8.970;2023-04-12T09:41:39;3.40;;;1.70;;
18780;SDS011;9519;51.890;8.970;2023-04-12T09:46:48;4.87;;;1.77;;
18780;SDS011;9519;51.890;8.970;2023-04-12T09:51:53;3.40;;;1.60;;
18780;SDS011;9519;51.890;8.970;2023-04-12T09:56:55;4.80;;;1.90;;
18780;SDS011;9519;51.890;8.970;2023-04-12T10:01:57;5.73;;;2.00;;
18780;SDS011;9519;51.890;8.970;2023-04-12T10:07:01;4.40;;;1.80;;
18780;SDS011;9519;51.890;8.970;2023-04-12T10:12:05;4.23;;;1.53;;
18780;SDS011;9519;51.890;8.970;2023-04-12T10:17:08;5.57;;;1.60;;
18780;SDS011;9519;51.890;8.970;2023-04-12T10:22:15;4.20;;;1.70;;
18780;SDS011;9519;51.890;8.970;2023-04-12T10:27:23;3.27;;;1.57;;
18780;SDS011;9519;51.890;8.970;2023-04-12T10:32:27;3.67;;;1.63;;
18780;SDS011;9519;51.890;8.970;2023-04-12T10:48:30;2.07;;;1.20;;
18780;SDS011;9519;51.890;8.970;2023-04-12T10:53:34;3.90;;;1.47;;
18780;SDS011;9519;51.890;8.970;2023-04-12T10:58:58;4.60;;;1.73;;
18780;SDS011;9519;51.890;8.970;2023-04-12T11:04:08;3.67;;;1.87;;
18780;SDS011;9519;51.890;8.970;2023-04-12T11:09:18;4.50;;;1.57;;
18780;SDS011;9519;51.890;8.970;2023-04-12T11:14:24;2.17;;;1.20;;
18780;SDS011;9519;51.890;8.970;2023-04-12T11:19:30;2.97;;;1.37;;
18780;SDS011;9519;51.890;8.970;2023-04-12T11:24:34;3.03;;;1.33;;
18780;SDS011;9519;51.890;8.970;2023-04-12T11:29:39;2.80;;;1.53;;
18780;SDS011;9519;51.890;8.970;2023-04-12T11:34:42;2.67;;;1.33;;
18780;SDS011;9519;51.890;8.970;2023-04-12T11:39:50;2.83;;;1.30;;
18780;SDS011;9519;51.890;8.970;2023-04-12T11:44:53;2.67;;;1.30;;
18780;SDS011;9519;51.890;8.970;2023-04-12T11:49:57;2.40;;;1.27;;
18780;SDS011;9519;51.890;8.970;2023-04-12T11:55:03;5.70;;;1.30;;
18780;SDS011;9519;51.890;8.970;2023-04-12T12:00:08;2.23;;;1.50;;
18780;SDS011;9519;51.890;8.970;2023-04-12T12:05:11;1.83;;;1.20;;
18780;SDS011;9519;51.890;8.970;2023-04-12T12:10:14;1.70;;;1.20;;
18780;SDS011;9519;51.890;8.970;2023-04-12T12:15:18;1.87;;;1.33;;
18780;SDS011;9519;51.890;8.970;2023-04-12T12:20:20;3.80;;;1.53;;
18780;SDS011;9519;51.890;8.970;2023-04-12T12:25:24;2.23;;;1.33;;
18780;SDS011;9519;51.890;8.970;2023-04-12T12:30:29;2.33;;;1.40;;
18780;SDS011;9519;51.890;8.970;2023-04-12T12:35:33;2.63;;;1.50;;
18780;SDS011;9519;51.890;8.970;2023-04-12T12:40:37;1.77;;;1.30;;
18780;SDS011;9519;51.890;8.970;2023-04-12T12:45:39;2.83;;;1.70;;
18780;SDS011;9519;51.890;8.970;2023-04-12T12:50:42;2.80;;;1.40;;
18780;SDS011;9519;51.890;8.970;2023-04-12T12:55:45;2.57;;;1.30;;
18780;SDS011;9519;51.890;8.970;2023-04-12T13:00:47;2.73;;;1.33;;
18780;SDS011;9519;51.890;8.970;2023-04-12T13:05:50;2.40;;;1.37;;
18780;SDS011;9519;51.890;8.970;2023-04-12T13:10:53;2.33;;;1.40;;
18780;SDS011;9519;51.890;8.970;2023-04-12T13:15:55;2.07;;;1.43;;
18780;SDS011;9519;51.890;8.970;2023-04-12T13:20:57;2.80;;;1.60;;
18780;SDS011;9519;51.890;8.970;2023-04-12T13:26:01;3.63;;;2.10;;
18780;SDS011;9519;51.890;8.970;2023-04-12T13:31:03;3.73;;;2.20;;
18780;SDS011;9519;51.890;8.970;2023-04-12T13:36:06;2.50;;;1.70;;
18780;SDS011;9519;51.890;8.970;2023-04-12T13:41:10;5.03;;;2.17;;
18780;SDS011;9519;51.890;8.970;2023-04-12T13:46:12;4.37;;;2.00;;
18780;SDS011;9519;51.890;8.970;2023-04-12T13:51:14;4.37;;;1.80;;
18780;SDS011;9519;51.890;8.970;2023-04-12T13:56:18;2.37;;;1.37;;
18780;SDS011;9519;51.890;8.970;2023-04-12T14:01:21;3.40;;;1.57;;
18780;SDS011;9519;51.890;8.970;2023-04-12T14:06:24;3.10;;;1.40;;
18780;SDS011;9519;51.890;8.970;2023-04-12T14:11:28;2.87;;;1.40;;
18780;SDS011;9519;51.890;8.970;2023-04-12T14:16:30;2.50;;;1.20;;
18780;SDS011;9519;51.890;8.970;2023-04-12T14:21:32;2.43;;;1.13;;
18780;SDS011;9519;51.890;8.970;2023-04-12T14:26:36;2.37;;;1.20;;
18780;SDS011;9519;51.890;8.970;2023-04-12T14:31:39;2.30;;;1.30;;
18780;SDS011;9519;51.890;8.970;2023-04-12T14:36:41;2.60;;;1.40;;
18780;SDS011;9519;51.890;8.970;2023-04-12T14:41:45;2.77;;;1.40;;
18780;SDS011;9519;51.890;8.970;2023-04-12T14:46:47;3.07;;;1.60;;
18780;SDS011;9519;51.890;8.970;2023-04-12T14:51:49;2.43;;;1.20;;
18780;SDS011;9519;51.890;8.970;2023-04-12T14:56:52;2.97;;;1.73;;
18780;SDS011;9519;51.890;8.970;2023-04-12T15:01:55;4.27;;;1.77;;
18780;SDS011;9519;51.890;8.970;2023-04-12T15:06:58;3.20;;;2.30;;
18780;SDS011;9519;51.890;8.970;2023-04-12T15:12:01;3.77;;;2.53;;
18780;SDS011;9519;51.890;8.970;2023-04-12T15:17:04;4.20;;;2.53;;
18780;SDS011;9519;51.890;8.970;2023-04-12T15:22:06;4.63;;;2.73;;
18780;SDS011;9519;51.890;8.970;2023-04-12T15:27:12;4.00;;;3.07;;
18780;SDS011;9519;51.890;8.970;2023-04-12T15:32:14;3.13;;;2.00;;
18780;SDS011;9519;51.890;8.970;2023-04-12T15:37:17;2.17;;;1.30;;
18780;SDS011;9519;51.890;8.970;2023-04-12T15:42:20;2.60;;;1.60;;
18780;SDS011;9519;51.890;8.970;2023-04-12T15:47:22;3.20;;;2.00;;
18780;SDS011;9519;51.890;8.970;2023-04-12T15:52:25;15.43;;;9.87;;
18780;SDS011;9519;51.890;8.970;2023-04-12T15:57:28;5.23;;;3.97;;
18780;SDS011;9519;51.890;8.970;2023-04-12T16:02:30;6.63;;;3.13;;
18780;SDS011;9519;51.890;8.970;2023-04-12T16:07:32;7.87;;;4.30;;
18780;SDS011;9519;51.890;8.970;2023-04-12T16:12:36;8.00;;;7.20;;
18780;SDS011;9519;51.890;8.970;2023-04-12T16:17:38;9.93;;;7.90;;
18780;SDS011;9519;51.890;8.970;2023-04-12T16:22:40;18.00;;;10.77;;
18780;SDS011;9519;51.890;8.970;2023-04-12T16:27:44;8.93;;;4.53;;
18780;SDS011;9519;51.890;8.970;2023-04-12T16:32:46;8.23;;;5.90;;
18780;SDS011;9519;51.890;8.970;2023-04-12T16:37:49;9.40;;;4.70;;
18780;SDS011;9519;51.890;8.970;2023-04-12T16:42:53;7.53;;;5.70;;
18780;SDS011;9519;51.890;8.970;2023-04-12T16:47:55;11.30;;;10.10;;
18780;SDS011;9519;51.890;8.970;2023-04-12T16:52:57;9.67;;;6.50;;
18780;SDS011;9519;51.890;8.970;2023-04-12T16:58:04;9.00;;;8.03;;
18780;SDS011;9519;51.890;8.970;2023-04-12T17:03:06;11.60;;;9.33;;
18780;SDS011;9519;51.890;8.970;2023-04-12T17:08:08;31.90;;;15.63;;
18780;SDS011;9519;51.890;8.970;2023-04-12T17:13:13;15.07;;;10.63;;
18780;SDS011;9519;51.890;8.970;2023-04-12T17:18:16;14.20;;;6.90;;
18780;SDS011;9519;51.890;8.970;2023-04-12T17:23:20;15.80;;;8.83;;
18780;SDS011;9519;51.890;8.970;2023-04-12T17:28:24;20.57;;;14.27;;
18780;SDS011;9519;51.890;8.970;2023-04-12T17:33:26;10.50;;;5.00;;
18780;SDS011;9519;51.890;8.970;2023-04-12T17:38:28;11.13;;;5.63;;
18780;SDS011;9519;51.890;8.970;2023-04-12T17:43:32;9.20;;;5.13;;
18780;SDS011;9519;51.890;8.970;2023-04-12T17:48:34;8.90;;;3.90;;
18780;SDS011;9519;51.890;8.970;2023-04-12T17:53:36;10.73;;;4.43;;
18780;SDS011;9519;51.890;8.970;2023-04-12T17:58:40;9.80;;;3.40;;
18780;SDS011;9519;51.890;8.970;2023-04-12T18:03:43;13.03;;;4.80;;
18780;SDS011;9519;51.890;8.970;2023-04-12T18:08:47;15.07;;;4.73;;
18780;SDS011;9519;51.890;8.970;2023-04-12T18:13:50;11.73;;;5.60;;
18780;SDS011;9519;51.890;8.970;2023-04-12T18:18:52;10.07;;;3.50;;
18780;SDS011;9519;51.890;8.970;2023-04-12T18:23:54;12.33;;;6.77;;
18780;SDS011;9519;51.890;8.970;2023-04-12T18:28:58;12.83;;;3.90;;
18780;SDS011;9519;51.890;8.970;2023-04-12T18:34:00;11.30;;;3.53;;
18780;SDS011;9519;51.890;8.970;2023-04-12T18:39:05;10.73;;;5.10;;
18780;SDS011;9519;51.890;8.970;2023-04-12T18:44:09;13.00;;;4.97;;
18780;SDS011;9519;51.890;8.970;2023-04-12T18:49:12;13.80;;;4.90;;
18780;SDS011;9519;51.890;8.970;2023-04-12T18:54:14;12.70;;;5.37;;
18780;SDS011;9519;51.890;8.970;2023-04-12T18:59:18;11.80;;;5.30;;
18780;SDS011;9519;51.890;8.970;2023-04-12T19:04:20;16.37;;;6.87;;
18780;SDS011;9519;51.890;8.970;2023-04-12T19:09:22;14.30;;;5.40;;
18780;SDS011;9519;51.890;8.970;2023-04-12T19:14:26;10.07;;;4.07;;
18780;SDS011;9519;51.890;8.970;2023-04-12T19:19:29;16.07;;;4.27;;
18780;SDS011;9519;51.890;8.970;2023-04-12T19:24:31;20.93;;;10.97;;
18780;SDS011;9519;51.890;8.970;2023-04-12T19:29:34;26.33;;;15.67;;
18780;SDS011;9519;51.890;8.970;2023-04-12T19:34:37;13.27;;;5.40;;
18780;SDS011;9519;51.890;8.970;2023-04-12T19:39:39;12.43;;;5.10;;
18780;SDS011;9519;51.890;8.970;2023-04-12T19:44:42;16.20;;;6.00;;
18780;SDS011;9519;51.890;8.970;2023-04-12T19:49:45;14.53;;;5.03;;
18780;SDS011;9519;51.890;8.970;2023-04-12T19:54:48;13.93;;;5.97;;
18780;SDS011;9519;51.890;8.970;2023-04-12T19:59:52;17.03;;;5.73;;
18780;SDS011;9519;51.890;8.970;2023-04-12T20:04:55;17.57;;;5.87;;
18780;SDS011;9519;51.890;8.970;2023-04-12T20:09:57;13.53;;;5.53;;
18780;SDS011;9519;51.890;8.970;2023-04-12T20:15:01;9.97;;;5.17;;
18780;SDS011;9519;51.890;8.970;2023-04-12T20:20:04;12.47;;;5.97;;
18780;SDS011;9519;51.890;8.970;2023-04-12T20:25:10;13.23;;;6.00;;
18780;SDS011;9519;51.890;8.970;2023-04-12T20:30:14;12.23;;;5.77;;
18780;SDS011;9519;51.890;8.970;2023-04-12T20:35:16;20.43;;;7.70;;
18780;SDS011;9519;51.890;8.970;2023-04-12T20:40:19;13.67;;;7.07;;
18780;SDS011;9519;51.890;8.970;2023-04-12T20:45:27;16.17;;;8.67;;
18780;SDS011;9519;51.890;8.970;2023-04-12T20:50:29;14.00;;;8.23;;
18780;SDS011;9519;51.890;8.970;2023-04-12T20:55:32;15.33;;;7.70;;
18780;SDS011;9519;51.890;8.970;2023-04-12T21:00:35;20.07;;;8.17;;
18780;SDS011;9519;51.890;8.970;2023-04-12T21:05:37;11.87;;;7.20;;
18780;SDS011;9519;51.890;8.970;2023-04-12T21:10:39;18.70;;;8.77;;
18780;SDS011;9519;51.890;8.970;2023-04-12T21:15:46;16.30;;;8.30;;
18780;SDS011;9519;51.890;8.970;2023-04-12T21:20:49;14.20;;;8.20;;
18780;SDS011;9519;51.890;8.970;2023-04-12T21:25:51;16.30;;;8.67;;
18780;SDS011;9519;51.890;8.970;2023-04-12T21:30:55;13.17;;;8.27;;
18780;SDS011;9519;51.890;8.970;2023-04-12T21:35:57;17.10;;;9.03;;
18780;SDS011;9519;51.890;8.970;2023-04-12T21:41:03;16.63;;;9.57;;
18780;SDS011;9519;51.890;8.970;2023-04-12T21:46:07;18.17;;;10.03;;
18780;SDS011;9519;51.890;8.970;2023-04-12T21:51:10;18.33;;;10.40;;
18780;SDS011;9519;51.890;8.970;2023-04-12T21:56:12;17.33;;;10.53;;
18780;SDS011;9519;51.890;8.970;2023-04-12T22:01:16;15.97;;;10.37;;
18780;SDS011;9519;51.890;8.970;2023-04-12T22:06:18;17.63;;;10.67;;
18780;SDS011;9519;51.890;8.970;2023-04-12T22:11:20;15.33;;;10.40;;
18780;SDS011;9519;51.890;8.970;2023-04-12T22:16:24;15.33;;;10.60;;
18780;SDS011;9519;51.890;8.970;2023-04-12T22:21:26;21.40;;;12.47;;
18780;SDS011;9519;51.890;8.970;2023-04-12T22:26:29;21.40;;;12.93;;
18780;SDS011;9519;51.890;8.970;2023-04-12T22:31:34;19.00;;;12.20;;
18780;SDS011;9519;51.890;8.970;2023-04-12T22:36:37;19.90;;;12.37;;
18780;SDS011;9519;51.890;8.970;2023-04-12T22:41:41;19.77;;;13.57;;
18780;SDS011;9519;51.890;8.970;2023-04-12T22:46:50;21.90;;;13.73;;
18780;SDS011;9519;51.890;8.970;2023-04-12T22:51:55;17.77;;;12.67;;
18780;SDS011;9519;51.890;8.970;2023-04-12T22:56:58;19.13;;;13.70;;
18780;SDS011;9519;51.890;8.970;2023-04-12T23:02:02;20.50;;;13.37;;
18780;SDS011;9519;51.890;8.970;2023-04-12T23:07:05;22.37;;;13.90;;
18780;SDS011;9519;51.890;8.970;2023-04-12T23:12:07;23.53;;;14.50;;
18780;SDS011;9519;51.890;8.970;2023-04-12T23:17:10;21.43;;;14.67;;
18780;SDS011;9519;51.890;8.970;2023-04-12T23:22:12;20.80;;;14.27;;
18780;SDS011;9519;51.890;8.970;2023-04-12T23:27:21;19.00;;;14.03;;
18780;SDS011;9519;51.890;8.970;2023-04-12T23:32:24;25.17;;;15.73;;
18780;SDS011;9519;51.890;8.970;2023-04-12T23:37:27;24.00;;;16.00;;
18780;SDS011;9519;51.890;8.970;2023-04-12T23:42:31;20.20;;;13.20;;
18780;SDS011;9519;51.890;8.970;2023-04-12T23:47:34;19.60;;;11.43;;
18780;SDS011;9519;51.890;8.970;2023-04-12T23:52:37;17.40;;;11.20;;
18780;SDS011;9519;51.890;8.970;2023-04-12T23:57:39;19.63;;;10.43;;
